Time;durP1;ratioP1;P1;durP2;ratioP2;P2;SDS_P1;SDS_P2;PMS_P1;PMS_P2;Temp;Humidity;BMP_temperature;BMP_pressure;BME280_temperature;BME280_humidity;BME280_pressure;Samples;Min_cycle;Max_cycle;Signal;HPM_P1;HPM_P2
2022/04/08 00:01:17;;;;;;;3.50;1.70;;;;;;;8.84;71.34;97154.25;5022464;28;20042;-57
2022/04/08 00:03:42;;;;;;;3.28;1.15;;;;;;;8.90;70.97;97148.66;5014592;28;20389;-57
2022/04/08 00:06:08;;;;;;;2.63;1.20;;;;;;;8.71;70.50;97158.63;5014050;28;20081;-58
2022/04/08 00:08:34;;;;;;;3.20;1.27;;;;;;;8.98;69.87;97143.75;5023980;28;20041;-58
2022/04/08 00:11:00;;;;;;;2.85;1.30;;;;;;;8.93;69.43;97151.03;5030341;28;20048;-58
2022/04/08 00:13:25;;;;;;;3.22;1.38;;;;;;;9.08;69.21;97144.78;5030048;28;20034;-57
2022/04/08 00:15:51;;;;;;;2.92;1.23;;;;;;;9.06;69.29;97146.69;5015850;28;20057;-58
2022/04/08 00:18:17;;;;;;;5.13;1.08;;;;;;;8.99;69.10;97141.94;5017357;28;20129;-58
2022/04/08 00:20:43;;;;;;;2.88;1.15;;;;;;;9.00;68.78;97149.69;5026671;28;20037;-58
2022/04/08 00:23:08;;;;;;;3.53;1.30;;;;;;;9.10;68.22;97142.91;5029929;28;20500;-58
2022/04/08 00:25:34;;;;;;;2.38;1.20;;;;;;;9.02;68.15;97149.59;5035984;28;20112;-58
2022/04/08 00:27:59;;;;;;;3.17;1.30;;;;;;;9.15;67.74;97152.25;5033922;28;20044;-58
2022/04/08 00:30:24;;;;;;;2.47;1.48;;;;;;;9.16;67.59;97128.56;5031964;28;20041;-57
2022/04/08 00:32:51;;;;;;;2.97;1.45;;;;;;;8.80;68.22;97143.16;5018185;28;20076;-56
2022/04/08 00:35:17;;;;;;;2.15;1.33;;;;;;;9.06;67.66;97141.44;5023037;28;20044;-58
2022/04/08 00:37:42;;;;;;;3.47;1.75;;;;;;;9.13;67.34;97150.53;5032356;28;20592;-58
2022/04/08 00:40:10;;;;;;;3.05;1.20;;;;;;;9.25;66.89;97143.63;5034810;28;20178;-58
2022/04/08 00:42:36;;;;;;;2.50;1.45;;;;;;;9.21;66.94;97143.97;5020924;28;20189;-58
2022/04/08 00:45:03;;;;;;;2.45;1.10;;;;;;;9.28;66.70;97153.09;5028508;28;20099;-58
2022/04/08 00:47:28;;;;;;;3.50;1.40;;;;;;;9.38;66.43;97143.69;5020814;28;20034;-56
2022/04/08 00:49:54;;;;;;;1.73;1.10;;;;;;;9.34;66.75;97144.81;5022312;28;20091;-57
2022/04/08 00:52:20;;;;;;;2.83;1.10;;;;;;;9.41;66.63;97148.69;5027084;28;20030;-56
2022/04/08 00:54:47;;;;;;;4.65;1.38;;;;;;;9.54;66.30;97153.94;5026098;28;20036;-59
2022/04/08 00:57:13;;;;;;;1.95;1.10;;;;;;;9.51;66.54;97149.75;5024983;28;20108;-57
2022/04/08 00:59:39;;;;;;;2.42;1.02;;;;;;;9.58;66.15;97161.50;5034578;28;20112;-57
2022/04/08 01:02:04;;;;;;;2.00;0.98;;;;;;;9.55;66.33;97156.44;5024652;28;20478;-58
2022/04/08 01:04:30;;;;;;;3.10;1.48;;;;;;;9.50;65.85;97155.94;5014401;28;20042;-57
2022/04/08 01:06:56;;;;;;;1.38;1.05;;;;;;;9.56;65.67;97152.88;5023619;28;20042;-57
2022/04/08 01:09:22;;;;;;;3.25;1.23;;;;;;;9.45;65.75;97144.91;5034636;28;20034;-56
2022/04/08 01:11:48;;;;;;;2.50;1.00;;;;;;;9.50;65.19;97140.22;5020534;28;20041;-57
2022/04/08 01:14:16;;;;;;;2.50;1.25;;;;;;;9.54;64.70;97148.72;5022524;28;20464;-58
2022/04/08 01:16:42;;;;;;;2.08;1.17;;;;;;;9.46;64.57;97157.09;5016839;28;20087;-57
2022/04/08 01:19:08;;;;;;;3.00;1.40;;;;;;;9.53;64.77;97145.22;5032330;28;20448;-56
2022/04/08 01:21:34;;;;;;;3.55;1.30;;;;;;;9.44;64.40;97131.94;5020628;28;20413;-58
2022/04/08 01:24:01;;;;;;;2.65;1.23;;;;;;;9.38;64.46;97139.28;5034622;28;20108;-58
2022/04/08 01:26:27;;;;;;;3.90;1.40;;;;;;;9.38;64.42;97138.44;5026684;28;20041;-59
2022/04/08 01:28:53;;;;;;;6.32;1.67;;;;;;;9.35;64.18;97143.88;5032555;28;20050;-57
2022/04/08 01:31:19;;;;;;;5.72;1.63;;;;;;;9.38;63.94;97138.44;5026498;28;20041;-58
2022/04/08 01:33:44;;;;;;;3.92;1.35;;;;;;;9.14;63.62;97140.94;5019088;28;20030;-58
2022/04/08 01:36:10;;;;;;;2.60;1.13;;;;;;;9.41;63.37;97132.13;5032105;28;20037;-58
2022/04/08 01:38:36;;;;;;;2.20;1.10;;;;;;;9.41;63.25;97132.13;5022160;28;20124;-58
2022/04/08 01:41:01;;;;;;;2.90;1.02;;;;;;;9.42;63.01;97137.28;5030000;28;20071;-58
2022/04/08 01:43:27;;;;;;;3.47;0.98;;;;;;;9.48;63.15;97133.38;5024001;28;20116;-57
2022/04/08 01:45:52;;;;;;;2.35;1.00;;;;;;;9.47;62.98;97127.31;5017262;28;20093;-57
2022/04/08 01:48:18;;;;;;;2.42;1.00;;;;;;;9.48;62.94;97133.38;5031188;28;20547;-57
2022/04/08 01:50:43;;;;;;;3.10;1.20;;;;;;;9.42;63.32;97134.66;5025341;28;20034;-57
2022/04/08 01:53:09;;;;;;;2.40;0.95;;;;;;;9.46;63.44;97130.88;5022554;28;20033;-57
2022/04/08 01:55:34;;;;;;;1.73;0.82;;;;;;;9.49;63.61;97128.03;5023931;28;20539;-59
2022/04/08 01:58:02;;;;;;;3.75;1.38;;;;;;;9.40;63.76;97131.28;5018417;28;20469;-58
2022/04/08 02:00:28;;;;;;;2.08;1.10;;;;;;;9.31;64.04;97130.13;5033108;28;20056;-58
2022/04/08 02:02:53;;;;;;;1.95;1.10;;;;;;;9.17;64.48;97124.16;5026388;28;20037;-56
2022/04/08 02:05:18;;;;;;;2.25;1.20;;;;;;;9.11;64.59;97122.78;5021042;28;20030;-58
2022/04/08 02:07:44;;;;;;;2.00;1.05;;;;;;;9.17;64.44;97113.66;5005512;28;20030;-57
2022/04/08 02:10:10;;;;;;;3.78;1.30;;;;;;;8.99;64.80;97121.00;5028756;28;20121;-58
2022/04/08 02:12:35;;;;;;;3.13;1.20;;;;;;;9.05;64.78;97125.81;5016570;28;20462;-58
2022/04/08 02:15:01;;;;;;;3.40;1.17;;;;;;;8.94;65.10;97117.88;5028756;28;20037;-57
2022/04/08 02:17:28;;;;;;;4.53;1.30;;;;;;;8.85;65.32;97116.66;5019770;28;20030;-57
2022/04/08 02:19:54;;;;;;;5.00;1.45;;;;;;;8.71;65.59;97127.22;5032238;28;20021;-55
2022/04/08 02:22:20;;;;;;;4.78;1.25;;;;;;;8.64;65.90;97135.47;5019922;28;20030;-57
2022/04/08 02:24:47;;;;;;;2.97;1.02;;;;;;;8.79;65.56;97135.41;5016394;28;20026;-57
2022/04/08 02:27:12;;;;;;;3.15;1.20;;;;;;;8.92;65.33;97133.66;5023474;28;20465;-56
2022/04/08 02:29:38;;;;;;;3.80;1.10;;;;;;;8.81;65.21;97129.13;5032057;28;20048;-57
2022/04/08 02:32:04;;;;;;;4.63;1.42;;;;;;;8.82;65.33;97127.38;5028547;28;20040;-57
2022/04/08 02:34:30;;;;;;;3.65;1.05;;;;;;;8.68;65.61;97132.66;5025104;28;20036;-57
2022/04/08 02:36:55;;;;;;;2.83;1.00;;;;;;;8.85;65.45;97124.53;5031329;28;20021;-57
2022/04/08 02:39:21;;;;;;;2.72;1.17;;;;;;;9.06;65.06;97130.13;5033197;28;20511;-56
2022/04/08 02:41:46;;;;;;;3.42;1.17;;;;;;;9.20;64.87;97129.19;5026387;28;20037;-56
2022/04/08 02:44:12;;;;;;;2.70;1.10;;;;;;;9.24;64.52;97128.03;5031689;28;20042;-57
2022/04/08 02:46:37;;;;;;;3.88;1.20;;;;;;;9.26;64.65;97123.56;5025784;28;20068;-57
2022/04/08 02:49:02;;;;;;;3.25;1.20;;;;;;;9.22;64.78;97133.41;5023734;28;21516;-56
2022/04/08 02:51:28;;;;;;;2.75;1.08;;;;;;;9.25;64.58;97132.31;5027091;28;20091;-56
2022/04/08 02:53:54;;;;;;;1.95;1.10;;;;;;;9.28;64.73;97126.88;5027968;28;20493;-58
2022/04/08 02:56:20;;;;;;;2.88;1.30;;;;;;;9.01;65.21;97134.81;5025021;28;20046;-56
2022/04/08 02:58:48;;;;;;;2.42;1.17;;;;;;;8.97;65.23;97134.19;5021025;28;20041;-56
2022/04/08 03:01:17;;;;;;;4.00;1.25;;;;;;;8.80;65.67;97122.22;5025553;28;20488;-56
2022/04/08 03:03:42;;;;;;;2.50;1.08;;;;;;;8.64;66.41;97122.38;5026630;28;20029;-56
2022/04/08 03:06:08;;;;;;;3.00;1.40;;;;;;;8.49;66.80;97117.31;5020104;28;20041;-57
2022/04/08 03:08:34;;;;;;;2.55;1.25;;;;;;;8.40;67.07;97113.50;5032654;28;20120;-57
2022/04/08 03:11:00;;;;;;;2.33;0.90;;;;;;;8.28;67.40;97116.88;5018319;28;20057;-56
2022/04/08 03:13:25;;;;;;;3.72;2.00;;;;;;;8.21;67.74;97123.44;5018864;28;20123;-56
2022/04/08 03:15:51;;;;;;;4.53;1.05;;;;;;;8.26;67.51;97114.38;5018121;28;20034;-57
2022/04/08 03:18:17;;;;;;;3.35;1.30;;;;;;;8.44;67.02;97125.47;5030450;28;20112;-56
2022/04/08 03:20:42;;;;;;;3.83;1.10;;;;;;;8.52;66.96;97127.59;5013783;28;20042;-57
2022/04/08 03:23:07;;;;;;;4.90;1.50;;;;;;;8.62;66.61;97139.16;5013569;28;20042;-56
2022/04/08 03:25:34;;;;;;;2.90;1.17;;;;;;;8.68;66.39;97130.03;5025957;28;20478;-56
2022/04/08 03:28:00;;;;;;;3.22;1.30;;;;;;;8.76;66.37;97125.13;5026664;28;20129;-58
2022/04/08 03:30:27;;;;;;;3.35;1.50;;;;;;;8.81;66.28;97129.13;5021467;28;20105;-56
2022/04/08 03:32:54;;;;;;;5.00;1.60;;;;;;;8.66;67.06;97142.38;5016679;28;20437;-57
2022/04/08 03:35:19;;;;;;;5.38;1.63;;;;;;;8.77;66.81;97145.13;5029414;28;20037;-56
2022/04/08 03:37:45;;;;;;;3.40;1.50;;;;;;;8.60;68.25;97152.31;5030792;28;20449;-57
2022/04/08 03:40:11;;;;;;;3.60;1.58;;;;;;;8.69;68.20;97152.66;5031266;28;20053;-57
2022/04/08 03:42:36;;;;;;;2.80;1.65;;;;;;;8.72;68.20;97157.69;5018537;28;20034;-58
2022/04/08 03:45:02;;;;;;;5.80;2.40;;;;;;;8.67;68.75;97159.78;5016209;28;20038;-57
2022/04/08 03:47:28;;;;;;;4.63;2.15;;;;;;;8.67;68.76;97146.69;5027912;28;20033;-57
2022/04/08 03:49:53;;;;;;;4.60;2.15;;;;;;;8.67;68.87;97151.94;5017075;28;20037;-57
2022/04/08 03:52:19;;;;;;;5.30;2.25;;;;;;;8.63;69.28;97153.91;5031768;28;20042;-57
2022/04/08 03:54:44;;;;;;;5.65;2.45;;;;;;;8.74;69.07;97153.22;5027724;28;20424;-57
2022/04/08 03:57:10;;;;;;;6.90;2.47;;;;;;;8.62;69.54;97147.81;5033668;28;20037;-57
2022/04/08 03:59:37;;;;;;;3.70;1.80;;;;;;;8.54;70.04;97150.09;5022994;28;20034;-56
2022/04/08 04:02:05;;;;;;;4.95;2.33;;;;;;;8.48;70.13;97152.28;5026590;28;20512;-58
2022/04/08 04:04:31;;;;;;;3.95;2.10;;;;;;;8.68;69.61;97156.22;5032712;28;20042;-59
2022/04/08 04:06:57;;;;;;;5.07;2.35;;;;;;;8.72;69.71;97155.06;5027528;28;20053;-55
2022/04/08 04:09:22;;;;;;;3.95;2.20;;;;;;;8.67;69.56;97155.38;5023299;28;20087;-58
2022/04/08 04:11:48;;;;;;;3.75;2.00;;;;;;;8.71;69.72;97158.63;5030021;28;20041;-55
2022/04/08 04:14:13;;;;;;;2.97;1.90;;;;;;;8.76;69.52;97162.63;5032156;28;20032;-59
2022/04/08 04:16:38;;;;;;;3.50;1.85;;;;;;;8.61;70.08;97161.00;5023403;28;20025;-56
2022/04/08 04:19:04;;;;;;;3.88;1.70;;;;;;;8.70;69.81;97159.56;5034863;28;20091;-57
2022/04/08 04:21:30;;;;;;;3.03;1.60;;;;;;;8.74;69.62;97163.69;5028646;28;20440;-56
2022/04/08 04:23:56;;;;;;;2.60;1.50;;;;;;;8.75;69.32;97165.34;5035585;28;20061;-58
2022/04/08 04:26:21;;;;;;;3.03;1.40;;;;;;;8.77;69.30;97172.16;5022963;28;20072;-58
2022/04/08 04:28:46;;;;;;;3.85;1.20;;;;;;;8.64;69.44;97168.66;5019312;28;20393;-57
2022/04/08 04:31:12;;;;;;;2.58;1.08;;;;;;;8.83;68.76;97179.63;5018487;28;20058;-57
2022/04/08 04:33:37;;;;;;;2.17;1.20;;;;;;;8.68;69.09;97185.00;5023709;28;20033;-57
2022/04/08 04:36:03;;;;;;;2.50;1.40;;;;;;;8.57;69.83;97185.69;5026498;28;20042;-58
2022/04/08 04:38:28;;;;;;;2.30;1.30;;;;;;;8.78;69.08;97184.31;5021457;28;20084;-56
2022/04/08 04:40:54;;;;;;;1.80;1.20;;;;;;;8.90;69.41;97187.91;5022346;28;20054;-57
2022/04/08 04:43:19;;;;;;;2.95;1.50;;;;;;;8.93;69.10;97190.31;5026413;28;20476;-58
2022/04/08 04:45:44;;;;;;;2.63;1.25;;;;;;;9.08;68.58;97194.53;5032931;28;20091;-58
2022/04/08 04:48:11;;;;;;;3.10;1.10;;;;;;;8.88;69.18;97195.00;5024751;28;20113;-56
2022/04/08 04:50:37;;;;;;;3.47;1.20;;;;;;;9.01;68.66;97203.75;5028159;28;20412;-56
2022/04/08 04:53:03;;;;;;;1.98;1.13;;;;;;;8.93;68.93;97200.78;5032929;28;20049;-57
2022/04/08 04:55:29;;;;;;;2.95;1.05;;;;;;;8.84;69.13;97214.47;5021057;28;20117;-57
2022/04/08 04:57:55;;;;;;;1.55;0.93;;;;;;;8.66;69.75;97229.59;5023946;28;20038;-58
2022/04/08 05:00:20;;;;;;;2.85;1.02;;;;;;;8.37;71.03;97220.97;5024274;28;20030;-56
2022/04/08 05:02:46;;;;;;;2.75;0.95;;;;;;;8.39;70.55;97224.34;5014323;28;20409;-57
2022/04/08 05:05:12;;;;;;;0.88;0.70;;;;;;;8.60;69.97;97241.28;5021874;28;20071;-58
2022/04/08 05:07:40;;;;;;;2.83;0.70;;;;;;;8.67;70.07;97256.63;5032017;28;20033;-57
2022/04/08 05:10:06;;;;;;;1.27;0.77;;;;;;;8.73;69.89;97259.66;5019824;28;20402;-57
2022/04/08 05:12:32;;;;;;;1.10;0.70;;;;;;;8.60;69.08;97259.59;5027007;28;20034;-58
2022/04/08 05:14:58;;;;;;;2.22;0.80;;;;;;;8.62;68.54;97260.38;5014538;28;20029;-59
2022/04/08 05:17:23;;;;;;;1.65;0.70;;;;;;;8.41;68.98;97340.19;5023834;28;20037;-58
2022/04/08 05:19:49;;;;;;;3.47;1.60;;;;;;;8.08;72.54;97309.03;5015632;28;20156;-58
2022/04/08 05:22:14;;;;;;;1.73;0.70;;;;;;;7.52;74.55;97321.91;5032914;28;20108;-58
2022/04/08 05:24:40;;;;;;;2.30;0.80;;;;;;;7.15;75.85;97344.91;5020014;28;20105;-57
2022/04/08 05:27:06;;;;;;;1.05;0.40;;;;;;;6.88;76.19;97341.22;5019167;28;20033;-58
2022/04/08 05:29:32;;;;;;;0.75;0.50;;;;;;;6.82;75.17;97375.47;5015296;28;20038;-58
2022/04/08 05:31:58;;;;;;;1.88;0.52;;;;;;;6.87;74.58;97363.03;5023114;28;20478;-57
2022/04/08 05:34:23;;;;;;;1.52;0.45;;;;;;;6.83;73.35;97378.00;5015245;28;20117;-57
2022/04/08 05:36:49;;;;;;;1.50;0.40;;;;;;;6.96;72.32;97378.19;5028313;28;20492;-56
2022/04/08 05:39:14;;;;;;;1.25;0.50;;;;;;;6.99;71.14;97372.78;5025295;28;20128;-56
2022/04/08 05:41:39;;;;;;;1.83;0.38;;;;;;;6.90;70.02;97404.59;5033426;28;20385;-56
2022/04/08 05:44:05;;;;;;;0.70;0.38;;;;;;;7.03;70.98;97386.53;5025274;28;20037;-55
2022/04/08 05:46:31;;;;;;;0.75;0.30;;;;;;;6.83;70.17;97432.81;5034783;28;20120;-56
2022/04/08 05:48:56;;;;;;;1.35;0.52;;;;;;;6.96;69.98;97419.94;5029754;28;20120;-56
2022/04/08 05:51:21;;;;;;;2.65;0.50;;;;;;;6.97;68.99;97457.31;5015124;28;20484;-57
2022/04/08 05:53:47;;;;;;;1.60;0.30;;;;;;;7.02;69.20;97440.50;5028386;28;20037;-56
2022/04/08 05:56:12;;;;;;;2.85;0.47;;;;;;;7.02;69.45;97471.84;5014772;28;20041;-56
2022/04/08 05:58:37;;;;;;;2.95;0.65;;;;;;;6.94;71.75;97447.88;5017928;28;20044;-56
2022/04/08 06:01:03;;;;;;;1.52;0.52;;;;;;;6.87;71.44;97457.81;5014483;28;20118;-56
2022/04/08 06:03:28;;;;;;;1.27;0.55;;;;;;;6.88;71.10;97463.88;5025022;28;20099;-57
2022/04/08 06:05:54;;;;;;;1.42;0.40;;;;;;;6.93;69.79;97466.25;5034231;28;20104;-55
2022/04/08 06:08:20;;;;;;;3.58;0.57;;;;;;;6.89;69.61;97491.66;5024599;28;20065;-57
2022/04/08 06:10:45;;;;;;;2.17;0.80;;;;;;;6.93;69.26;97492.34;5028572;28;20129;-57
2022/04/08 06:13:11;;;;;;;1.58;0.88;;;;;;;7.13;69.09;97502.56;5031773;28;20041;-57
2022/04/08 06:15:36;;;;;;;2.75;0.63;;;;;;;7.20;68.64;97510.94;5023010;28;20117;-57
2022/04/08 06:18:02;;;;;;;2.75;0.50;;;;;;;7.21;68.47;97515.22;5023889;28;20470;-57
2022/04/08 06:20:28;;;;;;;4.25;0.60;;;;;;;7.32;68.17;97545.06;5022247;28;20064;-55
2022/04/08 06:22:54;;;;;;;3.05;0.55;;;;;;;7.29;68.85;97536.53;5022881;28;20041;-57
2022/04/08 06:25:22;;;;;;;2.60;0.35;;;;;;;7.18;69.42;97554.53;5026657;28;20120;-56
2022/04/08 06:27:57;;;;;;;0.77;0.43;;;;;;;7.38;69.84;97551.72;5020451;28;20054;-55
2022/04/08 06:30:23;;;;;;;1.35;0.55;;;;;;;7.40;69.38;97561.16;5023642;28;20048;-55
2022/04/08 06:32:48;;;;;;;1.67;0.60;;;;;;;7.08;70.16;97572.47;5019167;28;20413;-55
2022/04/08 06:35:14;;;;;;;2.88;0.88;;;;;;;6.95;70.24;97595.78;5024285;28;20512;-56
2022/04/08 06:37:39;;;;;;;2.45;0.80;;;;;;;6.96;69.94;97576.56;5015799;28;20036;-56
2022/04/08 06:40:09;;;;;;;3.72;1.25;;;;;;;6.99;69.39;97586.03;5019965;28;20057;-59
2022/04/08 06:42:36;;;;;;;2.83;0.68;;;;;;;7.10;68.36;97607.16;5022281;28;20030;-56
2022/04/08 06:45:03;;;;;;;2.40;1.15;;;;;;;7.04;68.64;97597.91;5021158;28;20029;-56
2022/04/08 06:47:29;;;;;;;3.78;0.65;;;;;;;7.12;68.16;97598.34;5021861;28;20128;-57
2022/04/08 06:49:54;;;;;;;3.58;0.60;;;;;;;6.91;67.31;97610.75;5021862;28;20113;-56
2022/04/08 06:52:19;;;;;;;2.60;0.70;;;;;;;7.13;66.26;97613.09;5017635;28;20033;-57
2022/04/08 06:54:45;;;;;;;1.55;0.65;;;;;;;7.36;65.56;97619.72;5020359;28;20033;-56
2022/04/08 06:57:10;;;;;;;3.08;0.70;;;;;;;7.58;64.54;97618.59;5012348;28;20395;-55
2022/04/08 06:59:36;;;;;;;4.40;0.98;;;;;;;7.76;63.62;97643.75;5026523;28;20041;-56
2022/04/08 07:02:03;;;;;;;2.70;1.10;;;;;;;7.74;63.50;97632.53;5030742;28;20041;-56
2022/04/08 07:04:28;;;;;;;4.43;1.15;;;;;;;7.76;63.39;97653.34;5029004;28;20088;-56
2022/04/08 07:06:54;;;;;;;4.25;0.93;;;;;;;7.75;61.86;97643.84;5018009;28;20054;-57
2022/04/08 07:09:20;;;;;;;3.42;0.80;;;;;;;8.14;61.87;97643.44;5024633;28;20389;-58
2022/04/08 07:11:46;;;;;;;4.53;1.85;;;;;;;7.96;60.87;97637.44;5022447;28;20048;-55
2022/04/08 07:14:12;;;;;;;3.58;1.40;;;;;;;8.41;60.68;97648.09;5027657;28;20037;-56
2022/04/08 07:16:38;;;;;;;2.30;0.70;;;;;;;8.40;60.17;97647.25;5021602;28;20049;-58
2022/04/08 07:19:03;;;;;;;4.75;0.90;;;;;;;8.61;59.75;97659.09;5031097;28;20477;-55
2022/04/08 07:21:29;;;;;;;2.15;0.60;;;;;;;8.56;59.72;97663.78;5033687;28;20033;-56
2022/04/08 07:23:54;;;;;;;1.75;0.57;;;;;;;8.46;59.67;97680.94;5017143;28;20469;-56
2022/04/08 07:26:21;;;;;;;1.60;0.60;;;;;;;8.40;59.21;97689.13;5016213;28;20113;-55
2022/04/08 07:28:47;;;;;;;4.03;0.80;;;;;;;8.22;59.71;97684.84;5016724;28;20041;-57
2022/04/08 07:31:13;;;;;;;3.15;0.70;;;;;;;8.48;59.48;97686.91;5021254;28;20037;-57
2022/04/08 07:33:38;;;;;;;2.42;0.95;;;;;;;8.62;59.50;97694.84;5036387;28;20037;-56
2022/04/08 07:36:05;;;;;;;2.85;0.80;;;;;;;8.68;59.20;97711.13;5031599;28;20045;-56
2022/04/08 07:38:30;;;;;;;3.05;0.70;;;;;;;8.32;58.91;97706.97;5020877;28;20041;-54
2022/04/08 07:40:57;;;;;;;1.17;0.60;;;;;;;8.51;58.71;97712.91;5036316;28;20137;-56
2022/04/08 07:43:24;;;;;;;2.33;0.70;;;;;;;8.53;58.50;97715.44;5035890;28;20042;-56
2022/04/08 07:45:49;;;;;;;2.55;0.52;;;;;;;8.44;58.12;97734.28;5033485;28;20052;-58
2022/04/08 07:48:15;;;;;;;3.10;0.90;;;;;;;8.26;58.25;97726.47;5016200;28;20385;-56
2022/04/08 07:50:41;;;;;;;1.73;0.50;;;;;;;8.22;58.38;97721.47;5016594;28;20040;-58
2022/04/08 07:53:07;;;;;;;2.75;0.57;;;;;;;8.15;58.34;97747.13;5016664;28;20474;-58
2022/04/08 07:55:32;;;;;;;3.78;0.50;;;;;;;8.24;57.84;97751.03;5015824;28;20046;-59
2022/04/08 07:57:58;;;;;;;2.40;0.77;;;;;;;8.33;57.80;97759.19;5017115;28;20058;-57
2022/04/08 08:00:28;;;;;;;3.10;0.80;;;;;;;8.56;57.13;97747.53;5015849;28;20069;-56
2022/04/08 08:02:54;;;;;;;3.40;0.70;;;;;;;8.92;56.21;97764.72;5018019;28;20029;-57
2022/04/08 08:05:20;;;;;;;6.03;1.27;;;;;;;9.36;55.38;97775.28;5035148;28;20033;-58
2022/04/08 08:07:50;;;;;;;3.47;0.80;;;;;;;9.60;54.82;97762.50;5034349;28;20080;-56
2022/04/08 08:10:26;;;;;;;3.25;0.70;;;;;;;9.78;54.15;97765.00;5034831;28;20065;-57
2022/04/08 08:12:53;;;;;;;2.22;0.60;;;;;;;10.23;53.65;97776.25;5025048;28;20038;-58
2022/04/08 08:15:19;;;;;;;2.90;0.70;;;;;;;10.32;52.22;97771.28;5027041;28;20095;-57
2022/04/08 08:17:46;;;;;;;3.95;0.75;;;;;;;10.25;51.68;97811.13;5026887;28;20030;-58
2022/04/08 08:20:13;;;;;;;3.67;0.90;;;;;;;10.37;51.35;97789.38;5034822;28;20461;-57
2022/04/08 08:22:39;;;;;;;5.22;1.48;;;;;;;10.28;50.33;97824.91;5028040;28;20160;-56
2022/04/08 08:25:06;;;;;;;3.95;1.13;;;;;;;10.26;50.73;97802.34;5020440;28;20045;-59
2022/04/08 08:27:51;;;;;;;3.33;1.10;;;;;;;10.29;50.20;97825.75;5028563;28;20040;-57
2022/04/08 08:30:17;;;;;;;2.97;0.80;;;;;;;9.95;50.78;97809.41;5024665;28;20044;-56
2022/04/08 08:32:45;;;;;;;4.30;0.98;;;;;;;9.82;50.70;97804.06;5029218;28;20046;-55
2022/04/08 08:35:17;;;;;;;3.03;1.13;;;;;;;9.84;51.04;97822.31;5028229;28;20038;-59
2022/04/08 08:37:43;;;;;;;4.13;1.45;;;;;;;10.04;51.24;97836.88;5017637;28;20116;-58
2022/04/08 08:40:09;;;;;;;3.22;1.00;;;;;;;10.34;50.89;97831.59;5020369;28;20153;-57
2022/04/08 08:42:38;;;;;;;3.53;1.08;;;;;;;10.50;50.84;97834.13;5025710;28;20123;-58
2022/04/08 08:45:05;;;;;;;4.38;1.00;;;;;;;10.71;49.44;97855.56;5016996;28;20038;-57
2022/04/08 08:47:31;;;;;;;2.35;0.75;;;;;;;10.14;49.93;97869.50;5019142;28;20045;-57
2022/04/08 08:49:56;;;;;;;2.38;0.77;;;;;;;10.32;50.07;97817.69;5023560;28;20033;-54
2022/04/08 08:52:23;;;;;;;2.60;0.75;;;;;;;10.08;49.93;97835.75;5025506;28;20439;-57
2022/04/08 08:54:49;;;;;;;2.13;0.70;;;;;;;10.09;50.42;97854.03;5023377;28;20095;-56
2022/04/08 08:57:16;;;;;;;3.50;0.60;;;;;;;10.05;50.12;97867.41;5030177;28;20701;-58
2022/04/08 08:59:42;;;;;;;2.75;0.70;;;;;;;9.99;50.53;97867.78;5025885;28;20468;-57
2022/04/08 09:02:07;;;;;;;2.40;0.65;;;;;;;10.46;49.92;97864.13;5024111;28;20041;-57
2022/04/08 09:04:39;;;;;;;3.42;0.73;;;;;;;10.56;49.78;97871.31;5028755;28;20049;-58
2022/04/08 09:07:06;;;;;;;3.25;0.77;;;;;;;10.41;49.63;97882.75;5020953;28;20044;-58
2022/04/08 09:09:32;;;;;;;4.30;1.30;;;;;;;10.55;49.94;97876.69;5023278;28;20588;-58
2022/04/08 09:12:14;;;;;;;4.60;1.35;;;;;;;10.48;49.68;97891.13;5023379;28;20116;-56
2022/04/08 09:14:48;;;;;;;4.20;0.80;;;;;;;10.23;50.48;97904.84;5014025;28;20041;-56
2022/04/08 09:17:18;;;;;;;5.57;0.80;;;;;;;10.16;53.03;97921.88;5018574;28;20263;-57
2022/04/08 09:19:52;;;;;;;5.70;2.10;;;;;;;9.89;54.60;97922.53;5023320;28;20064;-58
2022/04/08 09:22:19;;;;;;;2.60;0.73;;;;;;;9.39;54.96;97952.47;5020891;28;20034;-57
2022/04/08 09:24:44;;;;;;;4.18;0.68;;;;;;;9.41;55.32;97955.00;5019731;28;20033;-58
2022/04/08 09:27:11;;;;;;;3.60;0.63;;;;;;;9.27;55.75;97958.41;5023937;28;20057;-59
2022/04/08 09:29:37;;;;;;;3.97;1.00;;;;;;;9.46;55.34;97948.59;5032343;28;20029;-59
2022/04/08 09:32:13;;;;;;;4.95;0.98;;;;;;;9.59;55.32;97939.09;5023484;28;20033;-57
2022/04/08 09:34:41;;;;;;;3.05;0.95;;;;;;;9.77;53.00;97941.59;5027974;28;20464;-58
2022/04/08 09:37:11;;;;;;;4.93;1.20;;;;;;;9.57;49.86;97956.69;5029867;28;20041;-58
2022/04/08 09:40:00;;;;;;;4.82;1.00;;;;;;;9.58;49.12;97982.00;5014612;28;20058;-56
2022/04/08 09:42:45;;;;;;;5.18;1.00;;;;;;;9.29;49.09;97967.00;5016911;28;20029;-60
2022/04/08 09:45:12;;;;;;;4.13;1.15;;;;;;;9.29;49.54;97980.09;5026531;28;20147;-58
2022/04/08 09:47:38;;;;;;;3.50;0.70;;;;;;;9.84;49.66;97977.03;5013664;28;20041;-59
2022/04/08 09:50:07;;;;;;;4.70;0.98;;;;;;;10.35;48.38;97975.00;5012977;28;20100;-57
2022/04/08 09:52:33;;;;;;;3.65;0.93;;;;;;;10.80;46.45;97960.91;5017021;28;20124;-59
2022/04/08 09:55:00;;;;;;;5.13;0.80;;;;;;;11.43;45.44;97959.63;5018626;28;20531;-56
2022/04/08 09:57:33;;;;;;;3.47;0.90;;;;;;;11.74;44.64;97957.69;5013218;28;20042;-57
2022/04/08 09:59:59;;;;;;;;;;;;;;;11.44;43.17;97961.31;5019117;28;20121;-57
2022/04/08 10:02:26;;;;;;;4.05;0.77;;;;;;;11.57;42.99;97970.13;5030035;28;20357;-58
2022/04/08 10:04:55;;;;;;;3.25;1.05;;;;;;;11.49;41.83;97964.50;5024007;28;20037;-56
2022/04/08 10:07:21;;;;;;;4.88;0.98;;;;;;;11.42;40.30;97984.25;5032697;28;20465;-58
2022/04/08 10:09:57;;;;;;;3.72;0.95;;;;;;;11.35;38.77;98038.13;5032853;28;20033;-56
2022/04/08 10:12:31;;;;;;;4.20;0.80;;;;;;;10.82;39.11;98002.84;5021608;28;20109;-57
2022/04/08 10:15:14;;;;;;;5.35;0.90;;;;;;;10.78;39.68;97993.47;5026119;28;20044;-57
2022/04/08 10:17:40;;;;;;;3.83;0.95;;;;;;;11.12;40.04;97996.66;5026650;28;20084;-57
2022/04/08 10:20:20;;;;;;;7.32;1.20;;;;;;;11.17;38.82;98018.22;5025003;28;20038;-58
2022/04/08 10:22:46;;;;;;;3.83;0.90;;;;;;;11.09;38.29;98009.06;5013872;28;20026;-57
2022/04/08 10:25:16;;;;;;;3.35;0.80;;;;;;;11.24;39.27;98007.25;5012575;28;20053;-56
2022/04/08 10:27:44;;;;;;;5.85;1.10;;;;;;;11.54;39.89;98008.91;5022871;28;20163;-56
2022/04/08 10:30:14;;;;;;;3.45;0.80;;;;;;;11.68;38.85;98026.44;5013774;28;20042;-57
2022/04/08 10:32:40;;;;;;;4.55;1.00;;;;;;;11.48;37.08;98025.06;5026631;28;20091;-56
2022/04/08 10:35:18;;;;;;;6.95;1.85;;;;;;;11.24;35.73;98033.53;5022933;28;20173;-57
2022/04/08 10:38:05;;;;;;;3.78;0.90;;;;;;;10.92;36.29;98048.63;5018936;28;20042;-56
2022/04/08 10:40:39;;;;;;;5.80;1.15;;;;;;;10.49;35.65;98093.19;5030889;28;20069;-54
2022/04/08 10:43:09;;;;;;;6.25;1.10;;;;;;;10.58;36.23;98055.06;5027624;28;20038;-57
2022/04/08 10:45:36;;;;;;;4.20;0.85;;;;;;;10.30;36.32;98056.66;5030324;28;20433;-57
2022/04/08 10:48:16;;;;;;;4.40;0.88;;;;;;;10.26;37.29;98084.00;5021697;28;20033;-55
2022/04/08 10:50:41;;;;;;;5.10;1.00;;;;;;;10.39;37.08;98057.91;5015654;28;20045;-59
2022/04/08 10:53:09;;;;;;;4.38;1.00;;;;;;;10.24;37.12;98077.94;5025027;28;20033;-56
2022/04/08 10:55:50;;;;;;;5.03;0.85;;;;;;;10.06;36.36;98079.00;5021680;28;20492;-59
2022/04/08 10:58:29;;;;;;;5.88;0.98;;;;;;;10.16;35.52;98093.28;5017546;28;20053;-58
2022/04/08 11:00:54;;;;;;;4.22;0.98;;;;;;;10.09;34.25;98090.19;5012456;28;20037;-56
2022/04/08 11:03:25;;;;;;;3.83;0.90;;;;;;;10.45;34.85;98070.69;5017053;28;20477;-59
2022/04/08 11:05:51;;;;;;;4.45;0.88;;;;;;;10.66;34.47;98092.22;5031800;28;20029;-59
2022/04/08 11:08:18;;;;;;;8.00;4.43;;;;;;;10.77;34.58;98079.31;5015656;28;20034;-58
2022/04/08 11:10:43;;;;;;;6.20;1.10;;;;;;;10.64;34.79;98086.19;5012389;28;20045;-57
2022/04/08 11:13:11;;;;;;;8.18;2.92;;;;;;;10.86;34.25;98075.28;5012726;28;20034;-57
2022/04/08 11:15:41;;;;;;;12.55;7.55;;;;;;;11.18;34.59;98085.66;5025714;28;20116;-55
2022/04/08 11:18:08;;;;;;;9.88;3.67;;;;;;;11.26;34.10;98083.41;5030163;28;20160;-56
2022/04/08 11:20:34;;;;;;;7.47;3.45;;;;;;;11.67;33.95;98082.63;5016361;28;20502;-57
2022/04/08 11:23:00;;;;;;;15.13;8.32;;;;;;;11.67;33.66;98090.53;5024163;28;20041;-58
2022/04/08 11:25:28;;;;;;;5.72;1.00;;;;;;;11.39;33.06;98086.13;5024739;28;20067;-59
2022/04/08 11:28:10;;;;;;;6.72;0.93;;;;;;;11.68;33.52;98115.88;5026349;28;20065;-57
2022/04/08 11:30:39;;;;;;;4.88;1.10;;;;;;;11.56;32.55;98097.28;5027759;28;20385;-57
2022/04/08 11:33:18;;;;;;;4.15;0.80;;;;;;;11.77;32.83;98116.16;5014409;28;20405;-57
2022/04/08 11:35:45;;;;;;;5.07;1.02;;;;;;;11.91;32.50;98117.97;5021179;28;20041;-57
2022/04/08 11:38:12;;;;;;;3.50;0.90;;;;;;;11.66;32.12;98123.88;5010852;28;20042;-58